createdAt,value
2022-09-18T00:01:36.612Z,86.67
2022-09-18T00:05:38.285Z,86.19
2022-09-18T00:09:46.743Z,86.18
2022-09-18T00:13:48.850Z,86.37
2022-09-18T00:17:50.585Z,86.64
2022-09-18T00:21:52.025Z,86.29
2022-09-18T00:25:53.473Z,86.47
2022-09-18T00:30:01.775Z,86.49
2022-09-18T00:34:14.469Z,86.34
2022-09-18T00:38:16.080Z,86.46
2022-09-18T00:42:25.861Z,86.64
2022-09-18T00:46:38.760Z,86.45
2022-09-18T00:50:46.717Z,85.88
2022-09-18T00:54:50.683Z,85.66
2022-09-18T00:58:52.001Z,85.68
2022-09-18T01:02:53.997Z,85.36
2022-09-18T01:06:58.587Z,85.55
2022-09-18T01:11:00.137Z,85.30
2022-09-18T01:15:11.217Z,85.53
2022-09-18T01:19:15.911Z,85.30
2022-09-18T01:23:36.197Z,85.58
2022-09-18T01:27:49.876Z,85.33
2022-09-18T01:32:07.841Z,84.58
2022-09-18T01:36:11.790Z,84.96
2022-09-18T01:40:20.078Z,85.26
2022-09-18T01:44:23.400Z,85.03
2022-09-18T01:48:38.744Z,84.90
2022-09-18T01:52:43.973Z,84.83
2022-09-18T01:56:48.302Z,84.61
2022-09-18T02:00:57.689Z,84.68
2022-09-18T02:05:00.575Z,84.91
2022-09-18T02:09:02.698Z,85.25
2022-09-18T02:13:11.817Z,84.87
2022-09-18T02:17:28.869Z,84.50
2022-09-18T02:21:30.592Z,84.36
2022-09-18T02:25:52.192Z,84.55
2022-09-18T02:29:54.071Z,84.62
2022-09-18T02:34:01.980Z,84.89
2022-09-18T02:38:14.029Z,84.88
2022-09-18T02:42:23.938Z,84.51
2022-09-18T02:46:43.981Z,85.17
2022-09-18T02:51:07.783Z,85.21
2022-09-18T02:55:11.807Z,85.53
2022-09-18T02:59:26.206Z,85.96
2022-09-18T03:03:28.451Z,85.81
2022-09-18T03:07:36.931Z,86.76
2022-09-18T03:11:44.745Z,87.60
2022-09-18T03:15:46.287Z,87.59
2022-09-18T03:19:47.591Z,88.50
2022-09-18T03:23:55.810Z,87.93
2022-09-18T03:28:03.873Z,87.61
2022-09-18T03:32:11.821Z,88.24
2022-09-18T03:36:13.434Z,88.49
2022-09-18T03:40:22.888Z,87.62
2022-09-18T03:44:30.885Z,87.30
2022-09-18T03:48:32.177Z,88.46
2022-09-18T03:52:34.300Z,88.04
2022-09-18T03:56:38.521Z,87.64
2022-09-18T04:00:39.840Z,87.49
2022-09-18T04:04:47.828Z,87.79
2022-09-18T04:08:49.985Z,87.29
2022-09-18T04:12:51.365Z,87.44
2022-09-18T04:16:52.665Z,87.40
2022-09-18T04:20:53.968Z,88.18
2022-09-18T04:24:55.420Z,87.78
2022-09-18T04:28:56.917Z,87.94
2022-09-18T04:33:04.914Z,88.70
2022-09-18T04:37:12.797Z,88.90
2022-09-18T04:41:14.161Z,89.21
2022-09-18T04:45:15.594Z,89.08
2022-09-18T04:49:17.393Z,89.07
2022-09-18T04:53:18.860Z,89.07
2022-09-18T04:57:20.272Z,89.15
2022-09-18T05:01:21.626Z,89.15
2022-09-18T05:05:23.033Z,89.31
2022-09-18T05:09:24.433Z,89.30
2022-09-18T05:13:26.250Z,89.30
2022-09-18T05:17:27.527Z,89.77
2022-09-18T05:21:28.904Z,89.52
2022-09-18T05:25:31.103Z,90.10
2022-09-18T05:29:38.942Z,89.91
2022-09-18T05:33:41.668Z,90.47
2022-09-18T05:37:42.974Z,90.94
2022-09-18T05:41:44.400Z,90.60
2022-09-18T05:45:46.395Z,91.40
2022-09-18T05:49:47.699Z,90.73
2022-09-18T05:53:49.277Z,91.16
2022-09-18T05:57:54.161Z,91.29
2022-09-18T06:02:01.992Z,90.76
2022-09-18T06:06:03.501Z,91.46
2022-09-18T06:10:11.959Z,90.61
2022-09-18T06:14:13.298Z,90.34
2022-09-18T06:18:15.107Z,90.11
2022-09-18T06:22:16.435Z,88.95
2022-09-18T06:26:17.975Z,88.05
2022-09-18T06:30:19.237Z,86.26
2022-09-18T06:34:20.553Z,84.82
2022-09-18T06:38:21.849Z,83.06
2022-09-18T06:42:23.221Z,81.19
2022-09-18T06:46:24.796Z,79.89
2022-09-18T06:50:26.258Z,79.16
2022-09-18T06:54:27.592Z,78.38
2022-09-18T06:58:36.242Z,77.18
2022-09-18T07:02:37.869Z,74.65
2022-09-18T07:06:45.867Z,71.65
2022-09-18T07:10:53.881Z,68.01
2022-09-18T07:14:55.379Z,68.67
2022-09-18T07:18:57.133Z,70.06
2022-09-18T07:22:59.591Z,69.84
2022-09-18T07:27:00.847Z,70.04
2022-09-18T07:31:03.152Z,69.49
2022-09-18T07:35:04.710Z,68.32
2022-09-18T07:39:05.998Z,66.57
2022-09-18T07:43:08.906Z,64.77
2022-09-18T07:47:11.673Z,63.18
2022-09-18T07:51:13.118Z,61.25
2022-09-18T07:55:14.489Z,60.70
2022-09-18T07:59:21.957Z,59.08
2022-09-18T08:03:25.279Z,59.65
2022-09-18T08:07:26.545Z,57.76
2022-09-18T08:11:34.258Z,57.45
2022-09-18T08:15:37.629Z,56.45
2022-09-18T08:19:39.066Z,55.91
2022-09-18T08:23:40.369Z,54.84
2022-09-18T08:27:42.370Z,57.22
2022-09-18T08:31:44.136Z,58.49
2022-09-18T08:35:45.556Z,58.03
2022-09-18T08:39:46.841Z,56.98
2022-09-18T08:44:13.971Z,57.29
2022-09-18T08:48:25.386Z,57.22
2022-09-18T08:52:28.469Z,56.54
2022-09-18T08:56:30.057Z,56.24
2022-09-18T09:00:41.644Z,56.65
2022-09-18T09:04:43.633Z,56.98
2022-09-18T09:09:14.901Z,57.42
2022-09-18T09:13:18.952Z,58.46
2022-09-18T09:17:37.812Z,57.67
2022-09-18T09:21:39.094Z,56.79
2022-09-18T09:25:48.001Z,56.93
2022-09-18T09:29:52.188Z,55.81
2022-09-18T09:34:07.422Z,57.12
2022-09-18T09:38:28.342Z,56.94
2022-09-18T09:42:42.221Z,54.40
2022-09-18T09:47:05.085Z,54.54
2022-09-18T09:51:32.953Z,54.79
2022-09-18T09:55:53.328Z,54.79
2022-09-18T09:59:54.633Z,53.89
2022-09-18T10:04:20.947Z,53.23
2022-09-18T10:08:27.420Z,54.48
2022-09-18T10:12:47.457Z,53.64
2022-09-18T10:16:51.118Z,55.45
2022-09-18T10:20:56.226Z,53.17
2022-09-18T10:25:00.920Z,53.04
2022-09-18T10:29:02.297Z,52.36
2022-09-18T10:33:03.733Z,51.60
2022-09-18T10:37:05.911Z,51.75
2022-09-18T10:41:18.086Z,52.61
2022-09-18T10:45:24.941Z,52.50
2022-09-18T10:49:28.973Z,53.89
2022-09-18T10:53:35.041Z,54.15
2022-09-18T10:57:44.035Z,53.73
2022-09-18T11:01:45.353Z,55.07
2022-09-18T11:05:49.080Z,54.29
2022-09-18T11:09:50.652Z,53.41
2022-09-18T11:13:59.624Z,53.59
2022-09-18T11:18:02.536Z,52.36
2022-09-18T11:22:05.948Z,52.82
2022-09-18T11:26:12.275Z,51.65
2022-09-18T11:30:24.039Z,51.39
2022-09-18T11:34:25.400Z,50.74
2022-09-18T11:38:39.078Z,49.90
2022-09-18T11:42:44.983Z,49.71
2022-09-18T11:46:58.392Z,50.68
2022-09-18T11:51:02.406Z,50.59
2022-09-18T11:55:16.028Z,50.65
2022-09-18T11:59:37.559Z,50.47
2022-09-18T12:03:55.248Z,48.91
2022-09-18T12:07:58.301Z,48.57
2022-09-18T12:12:03.309Z,48.61
2022-09-18T12:16:14.034Z,48.09
2022-09-18T12:20:22.668Z,47.02
2022-09-18T12:24:24.182Z,46.00
2022-09-18T12:28:33.749Z,46.14
2022-09-18T12:32:41.997Z,45.22
2022-09-18T12:36:43.240Z,44.70
2022-09-18T12:40:58.653Z,45.05
2022-09-18T12:45:14.915Z,44.94
2022-09-18T12:49:19.289Z,45.20
2022-09-18T12:53:20.706Z,44.76
2022-09-18T12:57:30.216Z,44.72
2022-09-18T13:01:34.928Z,45.03
2022-09-18T13:05:55.111Z,44.75
2022-09-18T13:10:03.176Z,43.19
2022-09-18T13:14:26.620Z,43.85
2022-09-18T13:18:41.013Z,43.07
2022-09-18T13:22:45.234Z,44.74
2022-09-18T13:26:47.928Z,44.32
2022-09-18T13:31:09.618Z,44.03
2022-09-18T13:35:13.986Z,43.64
2022-09-18T13:39:35.513Z,43.83
2022-09-18T13:43:52.229Z,43.28
2022-09-18T13:47:56.680Z,43.01
2022-09-18T13:52:16.747Z,42.28
2022-09-18T13:56:18.097Z,44.28
2022-09-18T14:00:19.403Z,44.65
2022-09-18T14:04:39.200Z,44.69
2022-09-18T14:08:40.561Z,44.36
2022-09-18T14:12:41.844Z,42.88
2022-09-18T14:16:44.621Z,43.75
2022-09-18T14:20:51.267Z,44.04
2022-09-18T14:24:59.035Z,43.65
2022-09-18T14:29:18.711Z,44.28
2022-09-18T14:33:27.538Z,45.20
2022-09-18T14:37:36.296Z,44.74
2022-09-18T14:41:38.360Z,43.66
2022-09-18T14:45:40.324Z,45.79
2022-09-18T14:49:42.852Z,45.85
2022-09-18T14:53:53.076Z,46.52
2022-09-18T14:57:57.156Z,45.32
2022-09-18T15:02:24.059Z,43.90
2022-09-18T15:06:34.624Z,44.52
2022-09-18T15:10:38.641Z,44.60
2022-09-18T15:14:45.585Z,44.91
2022-09-18T15:18:50.897Z,44.67
2022-09-18T15:22:53.394Z,44.49
2022-09-18T15:26:56.972Z,43.15
2022-09-18T15:31:00.939Z,43.54
2022-09-18T15:35:02.676Z,43.96
2022-09-18T15:39:05.756Z,43.61
2022-09-18T15:43:27.041Z,44.85
2022-09-18T15:47:28.464Z,44.87
2022-09-18T15:51:31.068Z,45.75
2022-09-18T15:55:53.995Z,44.81
2022-09-18T15:59:57.248Z,45.00
2022-09-18T16:04:04.471Z,43.62
2022-09-18T16:08:16.687Z,43.26
2022-09-18T16:12:34.685Z,44.25
2022-09-18T16:16:36.498Z,44.50
2022-09-18T16:20:42.454Z,44.94
2022-09-18T16:24:43.786Z,46.03
2022-09-18T16:28:50.358Z,46.04
2022-09-18T16:32:59.131Z,45.34
2022-09-18T16:37:00.412Z,46.31
2022-09-18T16:41:08.276Z,46.47
2022-09-18T16:45:10.184Z,46.87
2022-09-18T16:49:13.276Z,47.43
2022-09-18T16:53:15.043Z,47.77
2022-09-18T16:57:18.712Z,47.73
2022-09-18T17:01:36.252Z,47.95
2022-09-18T17:05:49.733Z,47.95
2022-09-18T17:09:58.197Z,48.82
2022-09-18T17:14:13.187Z,49.29
2022-09-18T17:18:14.630Z,50.31
2022-09-18T17:22:18.191Z,49.46
2022-09-18T17:26:23.088Z,49.43
2022-09-18T17:30:25.348Z,49.95
2022-09-18T17:34:26.712Z,49.56
2022-09-18T17:38:28.127Z,50.47
2022-09-18T17:42:29.430Z,50.13
2022-09-18T17:46:30.738Z,50.50
2022-09-18T17:50:33.688Z,50.12
2022-09-18T17:54:36.506Z,50.32
2022-09-18T17:58:40.812Z,50.17
2022-09-18T18:02:42.236Z,50.52
2022-09-18T18:06:46.053Z,50.66
2022-09-18T18:10:47.329Z,51.11
2022-09-18T18:14:48.593Z,50.61
2022-09-18T18:18:51.285Z,50.98
2022-09-18T18:22:59.220Z,51.44
2022-09-18T18:27:00.683Z,52.01
2022-09-18T18:31:05.747Z,52.16
2022-09-18T18:35:14.395Z,52.03
2022-09-18T18:39:15.893Z,52.83
2022-09-18T18:43:17.180Z,53.17
2022-09-18T18:47:20.338Z,53.78
2022-09-18T18:51:21.835Z,53.83
2022-09-18T18:55:23.225Z,53.42
2022-09-18T18:59:25.549Z,53.70
2022-09-18T19:03:26.985Z,53.55
2022-09-18T19:07:31.645Z,53.93
2022-09-18T19:11:40.204Z,54.93
2022-09-18T19:15:41.521Z,55.09
2022-09-18T19:19:42.816Z,55.08
2022-09-18T19:23:47.840Z,55.88
2022-09-18T19:27:49.152Z,56.63
2022-09-18T19:31:50.814Z,55.99
2022-09-18T19:35:52.180Z,56.24
2022-09-18T19:39:53.537Z,56.91
2022-09-18T19:43:55.036Z,57.45
2022-09-18T19:47:56.413Z,57.17
2022-09-18T19:51:58.703Z,57.66
2022-09-18T19:56:00.160Z,57.02
2022-09-18T20:00:01.842Z,57.90
2022-09-18T20:04:03.189Z,58.08
2022-09-18T20:08:13.277Z,57.92
2022-09-18T20:12:14.820Z,57.07
2022-09-18T20:16:17.629Z,57.94
2022-09-18T20:20:19.153Z,58.08
2022-09-18T20:24:20.529Z,57.96
2022-09-18T20:28:22.611Z,57.94
2022-09-18T20:32:24.191Z,58.03
2022-09-18T20:36:26.577Z,57.76
2022-09-18T20:40:28.090Z,58.40
2022-09-18T20:44:30.307Z,58.30
2022-09-18T20:48:35.505Z,58.30
2022-09-18T20:52:37.840Z,58.75
2022-09-18T20:56:46.737Z,59.41
2022-09-18T21:00:48.671Z,59.34
2022-09-18T21:04:52.301Z,58.91
2022-09-18T21:08:54.628Z,58.70
2022-09-18T21:12:58.024Z,58.66
2022-09-18T21:17:06.268Z,59.52
2022-09-18T21:21:09.067Z,59.48
2022-09-18T21:25:11.226Z,61.31
2022-09-18T21:29:13.901Z,63.69
2022-09-18T21:33:16.048Z,66.75
2022-09-18T21:37:18.481Z,69.34
2022-09-18T21:41:27.378Z,71.63
2022-09-18T21:45:37.402Z,73.73
2022-09-18T21:49:38.687Z,75.74
2022-09-18T21:53:41.269Z,76.74
2022-09-18T21:57:42.614Z,76.99
2022-09-18T22:01:50.574Z,78.17
2022-09-18T22:05:52.956Z,79.17
2022-09-18T22:09:54.305Z,78.92
2022-09-18T22:13:58.340Z,79.68
2022-09-18T22:18:00.049Z,79.83
2022-09-18T22:22:07.400Z,80.05
2022-09-18T22:26:24.797Z,80.55
2022-09-18T22:30:43.888Z,81.43
2022-09-18T22:34:55.833Z,81.40
2022-09-18T22:38:58.740Z,82.13
2022-09-18T22:43:24.028Z,82.74
2022-09-18T22:47:30.683Z,83.27
2022-09-18T22:51:47.479Z,83.06
2022-09-18T22:55:49.685Z,83.53
2022-09-18T22:59:50.988Z,84.04
2022-09-18T23:03:54.208Z,84.04
2022-09-18T23:08:02.352Z,84.38
2022-09-18T23:12:04.046Z,84.05
2022-09-18T23:16:13.384Z,84.05
2022-09-18T23:20:15.474Z,83.96
2022-09-18T23:24:16.916Z,84.03
2022-09-18T23:28:18.215Z,83.99
2022-09-18T23:36:37.454Z,84.95
2022-09-18T23:40:39.035Z,84.84
2022-09-18T23:44:40.488Z,85.23
2022-09-18T23:48:42.268Z,85.62
2022-09-18T23:52:50.449Z,85.13
2022-09-18T23:56:52.192Z,85.41
